Time;durP1;ratioP1;P1;durP2;ratioP2;P2;SDS_P1;SDS_P2;PMS_P1;PMS_P2;Temp;Humidity;BMP_temperature;BMP_pressure;BME280_temperature;BME280_humidity;BME280_pressure;Samples;Min_cycle;Max_cycle;Signal;HPM_P1;HPM_P2
2023/12/15 00:00:34;;;;;;;11.82;9.15;;;4.50;83.90;;;;;;4956817;29;20038;-82
2023/12/15 00:03:00;;;;;;;11.43;8.35;;;4.50;83.60;;;;;;4956193;28;20423;-82
2023/12/15 00:05:26;;;;;;;10.00;7.80;;;4.50;83.40;;;;;;4939421;29;20370;-82
2023/12/15 00:07:51;;;;;;;9.98;8.05;;;4.60;83.50;;;;;;4956814;28;20106;-84
2023/12/15 00:10:17;;;;;;;10.80;8.18;;;4.60;83.20;;;;;;4956710;29;20038;-81
2023/12/15 00:12:43;;;;;;;11.10;8.13;;;4.60;83.50;;;;;;4956372;29;20109;-82
2023/12/15 00:15:09;;;;;;;10.95;8.07;;;4.50;84.00;;;;;;4956267;29;20048;-82
2023/12/15 00:17:35;;;;;;;11.23;8.75;;;4.50;83.70;;;;;;4956519;28;20028;-81
2023/12/15 00:20:00;;;;;;;11.02;8.60;;;4.40;84.00;;;;;;4956405;29;20039;-81
2023/12/15 00:22:26;;;;;;;13.30;9.02;;;4.50;83.20;;;;;;4956048;28;20042;-82
2023/12/15 00:24:51;;;;;;;10.38;7.72;;;4.40;82.60;;;;;;4956229;28;20439;-79
2023/12/15 00:27:17;;;;;;;11.18;8.20;;;4.30;83.30;;;;;;4956147;29;20030;-81
2023/12/15 00:29:43;;;;;;;12.75;8.00;;;4.30;83.50;;;;;;4956245;29;20536;-81
2023/12/15 00:32:08;;;;;;;10.60;7.65;;;4.40;83.60;;;;;;4955978;28;20031;-81
2023/12/15 00:34:34;;;;;;;11.52;7.00;;;4.30;83.10;;;;;;4956067;29;20031;-82
2023/12/15 00:36:59;;;;;;;11.20;7.47;;;4.30;82.80;;;;;;4956000;28;20453;-81
2023/12/15 00:39:25;;;;;;;9.48;6.07;;;4.30;82.30;;;;;;4956004;29;20024;-81
2023/12/15 00:41:50;;;;;;;8.63;6.80;;;4.30;82.40;;;;;;4938793;29;20049;-83
2023/12/15 00:44:16;;;;;;;9.00;6.47;;;4.20;82.90;;;;;;4956149;28;20019;-83
2023/12/15 00:46:41;;;;;;;8.70;6.95;;;4.20;81.50;;;;;;4956062;28;20062;-86
2023/12/15 00:49:07;;;;;;;11.05;7.38;;;4.20;81.70;;;;;;4955478;29;20047;-83
2023/12/15 00:51:33;;;;;;;10.93;8.32;;;4.20;82.00;;;;;;4955631;29;20025;-84
2023/12/15 00:53:58;;;;;;;11.25;8.43;;;4.20;82.30;;;;;;4955703;29;20027;-84
2023/12/15 00:56:25;;;;;;;11.63;8.43;;;4.20;82.80;;;;;;4956383;29;20074;-84
2023/12/15 00:58:50;;;;;;;13.98;9.07;;;4.20;83.10;;;;;;4955726;28;20027;-84
2023/12/15 01:01:16;;;;;;;11.07;9.07;;;4.20;83.80;;;;;;4938800;29;20035;-82
2023/12/15 01:03:42;;;;;;;13.40;9.18;;;4.20;83.90;;;;;;4956108;28;20027;-84
2023/12/15 01:06:07;;;;;;;16.50;8.60;;;4.20;84.00;;;;;;4956187;29;20061;-83
2023/12/15 01:08:33;;;;;;;10.80;7.63;;;4.20;84.20;;;;;;4955972;29;20030;-80
2023/12/15 01:10:58;;;;;;;12.75;8.68;;;4.20;84.30;;;;;;4955865;28;20082;-83
2023/12/15 01:13:24;;;;;;;12.10;8.57;;;4.20;84.40;;;;;;4955114;28;20400;-81
2023/12/15 01:15:49;;;;;;;11.35;8.20;;;4.20;84.20;;;;;;4955583;28;20029;-78
2023/12/15 01:18:15;;;;;;;11.30;8.50;;;4.20;84.10;;;;;;4955568;28;20059;-79
2023/12/15 01:20:41;;;;;;;12.48;8.10;;;4.20;83.90;;;;;;4956849;28;20023;-80
2023/12/15 01:23:06;;;;;;;10.80;8.10;;;4.20;83.90;;;;;;4961540;28;20031;-81
2023/12/15 01:25:32;;;;;;;13.88;8.77;;;4.20;83.70;;;;;;4954738;29;20058;-77
2023/12/15 01:27:57;;;;;;;12.10;8.63;;;4.20;83.80;;;;;;4958148;28;20058;-76
2023/12/15 01:30:23;;;;;;;15.95;9.35;;;4.20;83.60;;;;;;4966847;29;20034;-82
2023/12/15 01:32:48;;;;;;;12.82;8.95;;;4.20;83.70;;;;;;4957218;29;20045;-79
2023/12/15 01:35:14;;;;;;;14.10;9.32;;;4.20;83.30;;;;;;4957649;29;20106;-84
2023/12/15 01:37:40;;;;;;;11.30;8.35;;;4.20;83.10;;;;;;4955777;29;20053;-84
2023/12/15 01:40:06;;;;;;;10.50;8.35;;;4.30;83.20;;;;;;4955453;29;20035;-83
2023/12/15 01:42:32;;;;;;;11.77;9.02;;;4.30;83.30;;;;;;4955245;28;20035;-84
2023/12/15 01:44:58;;;;;;;12.23;9.10;;;4.30;83.10;;;;;;4954968;28;20106;-82
2023/12/15 01:47:24;;;;;;;12.80;8.32;;;4.30;82.80;;;;;;4937427;29;20051;-83
2023/12/15 01:49:50;;;;;;;10.90;7.85;;;4.30;83.00;;;;;;4955030;29;20030;-83
2023/12/15 01:52:16;;;;;;;16.20;9.43;;;4.40;82.90;;;;;;4954887;28;20023;-78
2023/12/15 01:54:41;;;;;;;12.93;8.95;;;4.40;82.70;;;;;;4954748;29;20405;-77
2023/12/15 01:57:08;;;;;;;10.77;8.15;;;4.30;82.70;;;;;;4955014;29;20035;-81
2023/12/15 01:59:44;;;;;;;10.57;8.00;;;4.40;83.00;;;;;;4955136;29;20015;-81
2023/12/15 02:02:10;;;;;;;16.08;9.52;;;4.40;82.90;;;;;;4955489;29;20110;-81
2023/12/15 02:04:37;;;;;;;10.90;8.02;;;4.40;82.40;;;;;;4960752;28;20058;-82
2023/12/15 02:07:02;;;;;;;12.38;7.97;;;4.40;82.50;;;;;;4971901;29;20436;-76
2023/12/15 02:09:28;;;;;;;11.77;7.03;;;4.40;82.10;;;;;;4954566;29;20024;-78
2023/12/15 02:11:53;;;;;;;10.00;6.75;;;4.40;81.50;;;;;;4967226;28;20528;-77
2023/12/15 02:14:19;;;;;;;9.10;5.70;;;4.30;81.20;;;;;;4957262;29;20380;-76
2023/12/15 02:16:45;;;;;;;6.50;5.18;;;4.40;80.40;;;;;;4955478;29;20027;-77
2023/12/15 02:19:10;;;;;;;7.35;5.07;;;4.30;80.00;;;;;;4938261;29;20023;-84
2023/12/15 02:21:36;;;;;;;6.63;5.15;;;4.40;79.00;;;;;;4937643;29;20041;-81
2023/12/15 02:24:01;;;;;;;6.47;5.03;;;4.40;78.80;;;;;;4937809;29;20090;-81
2023/12/15 02:26:27;;;;;;;6.15;5.05;;;4.50;79.10;;;;;;4939271;29;20547;-78
2023/12/15 02:28:52;;;;;;;7.03;5.18;;;4.50;78.90;;;;;;4958393;28;20031;-80
2023/12/15 02:31:22;;;;;;;9.48;4.90;;;4.50;78.60;;;;;;4940721;29;20019;-80
2023/12/15 02:33:48;;;;;;;6.18;4.50;;;4.50;77.80;;;;;;4958269;29;20047;-79
2023/12/15 02:36:21;;;;;;;5.60;4.35;;;4.50;77.50;;;;;;4941194;29;20027;-78
2023/12/15 02:38:47;;;;;;;6.43;4.68;;;4.50;77.60;;;;;;4940430;29;20027;-80
2023/12/15 02:41:12;;;;;;;6.45;3.83;;;4.50;77.10;;;;;;4958249;28;20035;-76
2023/12/15 02:43:38;;;;;;;7.47;3.70;;;4.50;76.80;;;;;;4957400;29;20050;-80
2023/12/15 02:46:05;;;;;;;4.57;3.50;;;4.50;76.20;;;;;;4940977;29;20079;-80
2023/12/15 02:48:30;;;;;;;5.28;3.55;;;4.40;76.00;;;;;;4940285;29;20488;-80
2023/12/15 02:50:56;;;;;;;5.47;4.03;;;4.30;76.90;;;;;;4941558;29;20113;-81
2023/12/15 02:53:21;;;;;;;6.45;4.03;;;4.40;76.70;;;;;;4940656;29;20024;-80
2023/12/15 02:55:47;;;;;;;7.68;4.10;;;4.40;76.50;;;;;;4940314;29;20027;-76
2023/12/15 02:58:13;;;;;;;6.72;4.03;;;4.40;76.30;;;;;;4958021;29;20027;-77
2023/12/15 03:00:38;;;;;;;6.55;4.32;;;4.40;76.60;;;;;;4958012;28;20024;-80
2023/12/15 03:03:05;;;;;;;7.63;3.90;;;4.50;77.40;;;;;;4958501;29;20039;-80
2023/12/15 03:05:30;;;;;;;5.55;3.97;;;4.50;77.90;;;;;;4941011;29;20030;-75
2023/12/15 03:07:56;;;;;;;6.13;4.43;;;4.50;78.10;;;;;;4957672;29;20500;-78
2023/12/15 03:10:22;;;;;;;8.68;4.90;;;4.50;78.00;;;;;;4957831;28;20028;-78
2023/12/15 03:12:47;;;;;;;6.18;4.50;;;4.40;78.40;;;;;;4957462;29;20517;-81
2023/12/15 03:15:13;;;;;;;6.15;4.07;;;4.40;78.90;;;;;;4940296;29;20027;-77
2023/12/15 03:17:40;;;;;;;5.95;3.83;;;4.40;79.20;;;;;;4957775;29;20055;-77
2023/12/15 03:20:06;;;;;;;6.72;4.60;;;4.40;79.40;;;;;;4957483;28;20031;-80
2023/12/15 03:22:32;;;;;;;6.93;4.95;;;4.50;79.40;;;;;;4939522;29;20035;-81
2023/12/15 03:24:58;;;;;;;7.10;4.50;;;4.50;79.40;;;;;;4940676;29;20373;-78
2023/12/15 03:27:24;;;;;;;6.63;4.35;;;4.50;79.30;;;;;;4957277;28;20023;-77
2023/12/15 03:29:50;;;;;;;6.13;3.90;;;4.60;79.20;;;;;;4957335;29;20023;-79
2023/12/15 03:32:15;;;;;;;5.47;4.13;;;4.60;78.90;;;;;;4939718;29;20114;-77
2023/12/15 03:34:41;;;;;;;6.80;4.68;;;4.60;78.10;;;;;;4957024;29;20027;-77
2023/12/15 03:37:08;;;;;;;7.63;4.50;;;4.60;78.00;;;;;;4939045;29;20034;-77
2023/12/15 03:39:34;;;;;;;6.47;4.95;;;4.60;78.00;;;;;;4939692;29;20023;-79
2023/12/15 03:42:06;;;;;;;5.85;4.72;;;4.60;77.90;;;;;;4939750;29;20031;-77
2023/12/15 03:44:33;;;;;;;7.13;5.32;;;4.60;77.80;;;;;;4957082;29;20019;-77
2023/12/15 03:46:59;;;;;;;5.65;4.82;;;4.60;77.90;;;;;;4936189;29;20047;-80
2023/12/15 03:49:25;;;;;;;7.13;5.25;;;4.60;77.90;;;;;;4937664;29;20385;-77
2023/12/15 03:51:54;;;;;;;6.90;5.00;;;4.60;77.90;;;;;;4936921;29;20035;-77
2023/12/15 03:54:21;;;;;;;5.47;4.45;;;4.60;77.90;;;;;;4937817;29;20034;-81
2023/12/15 03:56:53;;;;;;;7.03;5.45;;;4.60;78.00;;;;;;4936876;29;20409;-77
2023/12/15 03:59:19;;;;;;;5.93;4.82;;;4.70;78.20;;;;;;4937639;29;20396;-81
2023/12/15 04:01:44;;;;;;;8.13;5.40;;;4.60;78.40;;;;;;4921839;29;20036;-80
2023/12/15 04:04:10;;;;;;;7.00;4.65;;;4.70;78.60;;;;;;4922643;29;20043;-81
2023/12/15 04:06:35;;;;;;;6.05;5.05;;;4.70;78.80;;;;;;4939909;29;20034;-82
2023/12/15 04:09:02;;;;;;;7.60;5.85;;;4.70;79.10;;;;;;4940593;29;20034;-82
2023/12/15 04:11:28;;;;;;;8.43;5.95;;;4.80;79.10;;;;;;4937727;29;20507;-81
2023/12/15 04:13:54;;;;;;;9.88;6.53;;;4.80;79.10;;;;;;4937639;29;20020;-80
2023/12/15 04:16:19;;;;;;;7.05;5.45;;;4.80;79.10;;;;;;4920338;29;20032;-81
2023/12/15 04:18:45;;;;;;;8.05;5.88;;;4.90;78.90;;;;;;4937842;29;20032;-80
2023/12/15 04:21:11;;;;;;;7.63;5.47;;;4.80;78.50;;;;;;4941013;29;20038;-83
2023/12/15 04:23:37;;;;;;;7.22;5.57;;;4.90;78.80;;;;;;4948649;29;20023;-83
2023/12/15 04:26:04;;;;;;;8.88;6.13;;;4.90;79.00;;;;;;4947337;29;20067;-83
2023/12/15 04:28:30;;;;;;;8.27;6.03;;;4.90;79.10;;;;;;4944637;29;20027;-81
2023/12/15 04:30:55;;;;;;;8.75;6.38;;;5.00;79.30;;;;;;4945686;29;20054;-82
2023/12/15 04:33:21;;;;;;;7.70;6.15;;;5.00;79.40;;;;;;4954991;29;20023;-84
2023/12/15 04:35:47;;;;;;;7.25;5.95;;;5.00;79.10;;;;;;4935183;29;20032;-82
2023/12/15 04:38:12;;;;;;;9.85;6.78;;;4.90;79.20;;;;;;4942861;29;20657;-81
2023/12/15 04:40:38;;;;;;;8.48;6.15;;;5.00;79.10;;;;;;4937860;29;20032;-80
2023/12/15 04:43:03;;;;;;;8.82;6.35;;;4.90;79.00;;;;;;4947740;29;20044;-83
2023/12/15 04:45:29;;;;;;;8.23;6.60;;;4.90;79.10;;;;;;4946232;29;20024;-80
2023/12/15 04:47:54;;;;;;;9.95;6.43;;;4.90;79.10;;;;;;4940121;29;20389;-81
2023/12/15 04:50:20;;;;;;;7.68;6.25;;;5.00;79.20;;;;;;4939599;29;20484;-79
2023/12/15 04:52:46;;;;;;;8.50;6.13;;;5.00;79.20;;;;;;4944898;29;20020;-80
2023/12/15 04:55:12;;;;;;;7.60;6.00;;;4.90;79.10;;;;;;4947504;29;20055;-78
2023/12/15 04:57:38;;;;;;;9.75;7.15;;;4.90;79.20;;;;;;4957416;29;20031;-80
2023/12/15 05:00:07;;;;;;;8.85;6.70;;;5.00;79.20;;;;;;4924816;29;20028;-82
2023/12/15 05:02:32;;;;;;;9.40;7.22;;;5.00;79.30;;;;;;4943776;29;20038;-80
2023/12/15 05:04:58;;;;;;;8.80;6.97;;;5.00;79.40;;;;;;4936980;29;20023;-81
2023/12/15 05:07:24;;;;;;;11.52;7.45;;;5.00;79.30;;;;;;4937801;29;20564;-84
2023/12/15 05:09:49;;;;;;;10.73;7.60;;;5.10;79.60;;;;;;4936341;29;20024;-84
2023/12/15 05:12:15;;;;;;;10.32;7.50;;;5.10;79.60;;;;;;4939692;29;20028;-83
2023/12/15 05:14:40;;;;;;;10.80;7.15;;;5.00;79.10;;;;;;4940709;29;20039;-84
2023/12/15 05:17:07;;;;;;;10.50;6.10;;;5.00;78.80;;;;;;4943324;29;20114;-85
2023/12/15 05:19:32;;;;;;;9.10;5.78;;;4.90;78.20;;;;;;4936667;29;20024;-84
2023/12/15 05:21:58;;;;;;;10.52;6.68;;;4.80;79.00;;;;;;4937775;29;20032;-85
2023/12/15 05:24:24;;;;;;;9.63;6.60;;;4.60;80.40;;;;;;4931619;29;20050;-84
2023/12/15 05:26:51;;;;;;;9.10;6.72;;;4.60;81.00;;;;;;4947570;29;20102;-82
2023/12/15 05:29:18;;;;;;;9.38;6.63;;;4.60;81.20;;;;;;4951224;29;20012;-83
2023/12/15 05:31:45;;;;;;;13.63;7.80;;;4.60;81.60;;;;;;4957938;29;20039;-81
2023/12/15 05:34:11;;;;;;;10.80;6.60;;;4.60;81.40;;;;;;4958614;28;20031;-83
2023/12/15 05:36:39;;;;;;;10.07;7.03;;;4.60;81.40;;;;;;4954458;29;20035;-76
2023/12/15 05:39:05;;;;;;;9.40;6.50;;;4.70;81.70;;;;;;4950303;29;20038;-80
2023/12/15 05:41:30;;;;;;;10.23;6.78;;;4.70;81.80;;;;;;4941771;29;20574;-80
2023/12/15 05:43:56;;;;;;;12.52;7.78;;;4.70;82.00;;;;;;4935275;29;20512;-80
2023/12/15 05:46:22;;;;;;;10.45;6.75;;;4.70;82.50;;;;;;4935162;29;20386;-81
2023/12/15 05:48:47;;;;;;;9.93;7.40;;;4.80;82.50;;;;;;4934663;29;20370;-80
2023/12/15 05:51:14;;;;;;;11.13;6.97;;;4.80;82.70;;;;;;4935566;29;20027;-80
2023/12/15 05:53:40;;;;;;;8.75;6.63;;;4.80;82.80;;;;;;4934642;29;20422;-79
2023/12/15 05:56:06;;;;;;;9.18;6.70;;;4.90;82.90;;;;;;4936756;29;20107;-80
2023/12/15 05:58:31;;;;;;;9.63;7.22;;;4.90;82.80;;;;;;4936020;29;20034;-80
2023/12/15 06:00:57;;;;;;;8.77;6.28;;;4.90;82.60;;;;;;4938624;29;20110;-81
2023/12/15 06:03:23;;;;;;;10.63;6.07;;;4.90;82.50;;;;;;4940271;29;20040;-83
2023/12/15 06:05:48;;;;;;;42.63;28.75;;;4.90;82.30;;;;;;4944169;29;20023;-83
2023/12/15 06:08:14;;;;;;;37.40;21.75;;;4.80;82.50;;;;;;4945517;29;20218;-83
2023/12/15 06:10:41;;;;;;;18.75;11.75;;;4.90;82.90;;;;;;4936267;29;20095;-77
2023/12/15 06:13:09;;;;;;;15.95;9.07;;;4.80;83.00;;;;;;4953547;29;20020;-85
2023/12/15 06:15:35;;;;;;;11.13;7.45;;;4.80;83.30;;;;;;4954327;29;20027;-83
2023/12/15 06:18:04;;;;;;;11.23;7.88;;;4.80;83.40;;;;;;4948144;29;20055;-81
2023/12/15 06:20:30;;;;;;;9.95;7.65;;;4.80;83.80;;;;;;4951067;29;20016;-81
2023/12/15 06:22:57;;;;;;;10.23;7.18;;;4.70;84.00;;;;;;4950670;29;20046;-81
2023/12/15 06:25:24;;;;;;;9.70;7.93;;;4.80;84.00;;;;;;4946290;29;20028;-81
2023/12/15 06:27:54;;;;;;;11.85;7.20;;;4.90;83.90;;;;;;4941322;29;20023;-78
2023/12/15 06:30:21;;;;;;;10.63;7.13;;;4.80;83.80;;;;;;4941997;29;20038;-81
2023/12/15 06:32:49;;;;;;;12.45;7.18;;;4.80;83.70;;;;;;4942155;29;20054;-81
2023/12/15 06:35:16;;;;;;;10.60;8.20;;;4.80;83.80;;;;;;4939054;29;20404;-80
2023/12/15 06:37:45;;;;;;;11.13;7.50;;;4.80;83.80;;;;;;4938292;29;20048;-79
2023/12/15 06:40:11;;;;;;;11.68;8.35;;;4.80;83.70;;;;;;4939612;29;20024;-80
2023/12/15 06:42:37;;;;;;;10.55;7.75;;;4.90;83.80;;;;;;4938773;29;20036;-80
2023/12/15 06:45:07;;;;;;;14.90;10.40;;;4.80;83.60;;;;;;4940147;29;20024;-81
2023/12/15 06:47:39;;;;;;;11.82;8.98;;;4.90;83.60;;;;;;4924191;29;20048;-80
2023/12/15 06:50:05;;;;;;;12.70;9.00;;;4.90;83.40;;;;;;4938537;29;20529;-80
2023/12/15 06:52:33;;;;;;;12.98;8.45;;;4.90;83.30;;;;;;4939545;29;20034;-80
2023/12/15 06:54:59;;;;;;;10.65;8.07;;;4.90;83.10;;;;;;4939839;29;20024;-80
2023/12/15 06:57:25;;;;;;;14.88;9.63;;;5.00;83.00;;;;;;4940263;29;20046;-82
2023/12/15 06:59:50;;;;;;;13.50;9.45;;;5.00;82.80;;;;;;4938790;29;20024;-81
2023/12/15 07:02:16;;;;;;;14.18;9.63;;;4.90;82.60;;;;;;4939803;29;20484;-82
2023/12/15 07:04:42;;;;;;;14.85;10.20;;;4.90;82.90;;;;;;4939640;29;20038;-82
2023/12/15 07:07:07;;;;;;;14.68;9.95;;;5.00;83.00;;;;;;4940602;29;20026;-82
2023/12/15 07:09:33;;;;;;;18.25;12.27;;;5.00;83.00;;;;;;4939021;29;20473;-79
2023/12/15 07:11:58;;;;;;;15.50;11.70;;;5.10;82.90;;;;;;4938840;29;20016;-82
2023/12/15 07:14:24;;;;;;;16.13;11.50;;;5.10;82.80;;;;;;4939139;29;20063;-83
2023/12/15 07:16:49;;;;;;;17.00;12.40;;;5.10;82.70;;;;;;4938257;29;20106;-77
2023/12/15 07:19:16;;;;;;;69.78;40.42;;;5.10;82.70;;;;;;4938070;29;20131;-78
2023/12/15 07:21:41;;;;;;;20.65;14.02;;;5.10;82.50;;;;;;4938887;29;20036;-79
2023/12/15 07:24:07;;;;;;;14.27;9.23;;;5.10;82.30;;;;;;4939428;29;20521;-85
2023/12/15 07:26:32;;;;;;;12.50;8.32;;;5.10;82.40;;;;;;4942323;29;20031;-79
2023/12/15 07:28:58;;;;;;;9.98;7.38;;;5.00;82.30;;;;;;4942770;29;20430;-82
2023/12/15 07:31:24;;;;;;;10.10;7.22;;;5.00;82.70;;;;;;4950656;29;20099;-83
2023/12/15 07:33:49;;;;;;;11.88;8.02;;;5.00;82.50;;;;;;4957838;29;20059;-87
2023/12/15 07:36:15;;;;;;;12.43;8.18;;;4.90;82.30;;;;;;4953798;29;20039;-84
2023/12/15 07:38:41;;;;;;;12.95;7.97;;;4.80;82.20;;;;;;4952825;29;20109;-84
2023/12/15 07:41:07;;;;;;;12.02;8.18;;;4.70;83.10;;;;;;4959298;29;20023;-76
2023/12/15 07:43:33;;;;;;;10.82;7.95;;;4.60;83.30;;;;;;4948898;29;20370;-82
2023/12/15 07:46:00;;;;;;;12.90;8.32;;;4.60;83.60;;;;;;4946857;28;20038;-82
2023/12/15 07:48:26;;;;;;;12.88;8.07;;;4.60;83.70;;;;;;4948148;29;20045;-82
2023/12/15 07:50:54;;;;;;;11.55;8.32;;;4.70;84.00;;;;;;4942322;29;20062;-81
2023/12/15 07:53:21;;;;;;;11.15;8.32;;;4.80;83.80;;;;;;4957268;28;20058;-79
2023/12/15 07:55:46;;;;;;;10.73;8.38;;;4.80;83.80;;;;;;4958031;29;20019;-81
2023/12/15 07:58:12;;;;;;;16.27;13.10;;;4.80;83.70;;;;;;4940415;29;20073;-80
2023/12/15 08:00:38;;;;;;;17.98;13.85;;;4.80;83.70;;;;;;4924227;29;20027;-81
2023/12/15 08:03:17;;;;;;;18.67;11.75;;;4.80;83.80;;;;;;4940849;29;20035;-79
2023/12/15 08:05:42;;;;;;;31.65;24.88;;;4.80;83.80;;;;;;4957461;29;20082;-81
2023/12/15 08:08:08;;;;;;;18.88;14.95;;;4.70;83.80;;;;;;4940121;29;20055;-78
2023/12/15 08:10:34;;;;;;;22.52;15.15;;;4.80;83.80;;;;;;4957149;29;20102;-80
2023/12/15 08:12:59;;;;;;;16.48;12.90;;;4.80;83.90;;;;;;4940037;29;20027;-80
2023/12/15 08:15:25;;;;;;;15.27;12.18;;;4.90;84.00;;;;;;4939781;29;20034;-76
2023/12/15 08:17:50;;;;;;;15.63;10.88;;;4.90;84.10;;;;;;4956605;28;20023;-78
2023/12/15 08:20:16;;;;;;;12.38;9.13;;;4.90;84.20;;;;;;4939591;29;20055;-80
2023/12/15 08:22:41;;;;;;;10.35;8.57;;;5.00;84.20;;;;;;4939809;28;20571;-78
2023/12/15 08:25:07;;;;;;;11.80;8.77;;;5.00;84.20;;;;;;4956317;29;20553;-80
2023/12/15 08:27:37;;;;;;;11.95;7.97;;;5.00;84.20;;;;;;4939078;29;20082;-77
2023/12/15 08:30:03;;;;;;;8.68;7.13;;;5.10;84.20;;;;;;4939245;29;20034;-79
2023/12/15 08:32:31;;;;;;;23.05;14.52;;;5.20;83.80;;;;;;4939222;29;20084;-79
2023/12/15 08:34:57;;;;;;;48.75;29.15;;;5.10;83.20;;;;;;4955810;28;20027;-79
2023/12/15 08:37:22;;;;;;;16.83;9.95;;;5.20;83.00;;;;;;4956066;28;20437;-76
2023/12/15 08:39:49;;;;;;;11.02;7.75;;;5.20;82.90;;;;;;4956347;28;20027;-83
2023/12/15 08:42:14;;;;;;;9.90;7.55;;;5.20;82.30;;;;;;4939371;29;20075;-80
2023/12/15 08:44:43;;;;;;;9.85;6.90;;;5.10;82.00;;;;;;4956688;28;20071;-75
2023/12/15 08:47:21;;;;;;;9.30;6.82;;;5.30;85.40;;;;;;4934847;29;20055;-78
2023/12/15 08:49:47;;;;;;;10.18;6.45;;;5.70;91.20;;;;;;4938044;29;20469;-81
2023/12/15 08:52:13;;;;;;;8.30;6.13;;;5.90;87.40;;;;;;4935959;29;20031;-76
2023/12/15 08:54:39;;;;;;;7.47;5.93;;;6.00;83.50;;;;;;4935653;29;20027;-80
2023/12/15 09:12:24;;;;;;;5.82;4.50;;;7.30;72.90;;;;;;5057664;23;20463;-78
2023/12/15 09:14:50;;;;;;;6.82;4.43;;;7.20;73.40;;;;;;5208928;23;20146;-79
2023/12/15 09:17:16;;;;;;;6.93;4.60;;;7.20;73.60;;;;;;5029527;23;20009;-78
2023/12/15 09:19:42;;;;;;;6.75;4.53;;;7.20;73.70;;;;;;4945914;23;20058;-81
2023/12/15 09:24:43;;;;;;;;;;;7.60;73.50;;;;;;5385346;23;20059;-80
2023/12/15 09:27:08;;;;;;;;;;;7.50;71.20;;;;;;4938432;29;19914;-82
2023/12/15 09:29:35;;;;;;;5.20;3.70;;;7.30;70.80;;;;;;4956314;28;19910;-81
2023/12/15 09:32:02;;;;;;;5.97;4.40;;;7.00;70.50;;;;;;4956453;29;20030;-82
2023/12/15 09:34:28;;;;;;;6.85;4.88;;;6.60;72.00;;;;;;4956211;28;20476;-82
2023/12/15 09:36:54;;;;;;;8.00;4.88;;;6.40;72.90;;;;;;4957409;29;20184;-81
2023/12/15 09:39:22;;;;;;;8.50;5.82;;;6.40;74.00;;;;;;4959480;29;20030;-81
2023/12/15 09:41:48;;;;;;;9.13;5.32;;;6.30;74.50;;;;;;4945700;29;20146;-82
2023/12/15 09:44:15;;;;;;;7.20;5.57;;;6.20;74.70;;;;;;4964363;28;20032;-83
2023/12/15 09:46:43;;;;;;;7.55;5.82;;;6.10;74.80;;;;;;4961054;29;20398;-83
2023/12/15 09:49:15;;;;;;;5.30;4.28;;;6.10;75.70;;;;;;4956879;28;20361;-83
2023/12/15 09:51:47;;;;;;;5.38;4.50;;;6.00;74.70;;;;;;4955844;29;20031;-82
2023/12/15 09:54:13;;;;;;;5.03;4.53;;;5.90;74.80;;;;;;4955192;29;20023;-82
2023/12/15 09:56:39;;;;;;;5.57;4.35;;;6.00;75.10;;;;;;4955330;29;20027;-82
2023/12/15 09:59:05;;;;;;;7.63;6.10;;;6.00;75.10;;;;;;4955253;28;20030;-83
2023/12/15 10:01:31;;;;;;;7.88;5.47;;;6.00;75.30;;;;;;4937820;29;20031;-82
2023/12/15 10:03:57;;;;;;;5.10;4.60;;;6.00;75.70;;;;;;4955550;28;20038;-84
2023/12/15 10:06:24;;;;;;;9.10;5.80;;;6.00;75.50;;;;;;4937903;29;20031;-82
2023/12/15 10:08:49;;;;;;;7.25;5.38;;;6.00;75.20;;;;;;4955209;29;20381;-80
2023/12/15 10:11:16;;;;;;;7.38;4.43;;;6.10;75.60;;;;;;4937836;29;20030;-82
2023/12/15 10:13:42;;;;;;;6.35;4.70;;;6.10;75.30;;;;;;4955292;29;20030;-82
2023/12/15 10:16:11;;;;;;;17.30;10.23;;;6.10;75.20;;;;;;4955452;28;20027;-81
2023/12/15 10:18:40;;;;;;;97.78;43.08;;;6.20;75.60;;;;;;4938093;29;20433;-83
2023/12/15 10:21:06;;;;;;;31.52;15.40;;;6.20;75.60;;;;;;4938628;29;20027;-82
2023/12/15 10:23:32;;;;;;;99.03;49.40;;;6.20;75.80;;;;;;4955074;28;20035;-82
2023/12/15 10:26:04;;;;;;;87.53;46.45;;;6.20;75.70;;;;;;4955724;28;20561;-82
2023/12/15 10:28:40;;;;;;;50.42;28.30;;;6.20;75.80;;;;;;4959682;29;20027;-81
2023/12/15 10:31:07;;;;;;;12.50;8.40;;;6.20;76.00;;;;;;4977772;28;20031;-82
2023/12/15 10:33:33;;;;;;;6.20;4.72;;;6.20;75.60;;;;;;4969856;28;20099;-83
2023/12/15 10:36:02;;;;;;;7.80;4.07;;;6.10;75.80;;;;;;4939438;29;20031;-83
2023/12/15 10:38:31;;;;;;;5.03;4.22;;;5.90;75.10;;;;;;4956299;28;20400;-78
2023/12/15 10:40:58;;;;;;;8.80;4.55;;;5.90;75.20;;;;;;4958142;28;20079;-82
2023/12/15 10:43:25;;;;;;;4.32;3.65;;;5.90;75.40;;;;;;4954241;28;20047;-80
2023/12/15 10:45:53;;;;;;;4.90;4.30;;;5.90;75.50;;;;;;4937242;28;20059;-80
2023/12/15 10:48:19;;;;;;;7.63;4.15;;;5.80;75.80;;;;;;4957249;29;20396;-80
2023/12/15 10:50:48;;;;;;;5.20;3.90;;;5.90;75.60;;;;;;4968396;28;20019;-80
2023/12/15 10:53:17;;;;;;;8.45;5.28;;;5.90;75.70;;;;;;4977010;28;20034;-82
2023/12/15 10:55:49;;;;;;;9.43;6.88;;;6.10;76.00;;;;;;4974616;23;20154;-83
2023/12/15 11:00:55;;;;;;;9.57;6.57;;;6.20;76.50;;;;;;4962917;23;20526;-83
2023/12/15 11:03:23;;;;;;;9.50;7.10;;;6.30;76.70;;;;;;4940825;29;20095;-84
2023/12/15 11:05:48;;;;;;;8.50;5.97;;;6.40;77.80;;;;;;4957910;28;20519;-81
2023/12/15 11:08:14;;;;;;;10.45;5.78;;;6.50;77.10;;;;;;4957885;28;20027;-82
2023/12/15 11:10:40;;;;;;;9.95;6.28;;;6.60;76.80;;;;;;4940667;29;20042;-83
2023/12/15 11:16:00;;;;;;;6.97;5.20;;;6.70;75.60;;;;;;5097261;23;20554;-82
2023/12/15 11:21:47;;;;;;;31.40;20.25;;;6.90;75.30;;;;;;4983847;23;20055;-82
2023/12/15 11:24:12;;;;;;;13.02;9.23;;;7.00;74.50;;;;;;4947762;23;20033;-82
2023/12/15 11:29:51;;;;;;;6.50;4.85;;;6.90;72.60;;;;;;5820631;23;20145;-84
2023/12/15 11:32:30;;;;;;;7.95;4.93;;;7.00;71.60;;;;;;4940592;29;20113;-82
2023/12/15 11:35:41;;;;;;;7.10;4.85;;;6.90;70.20;;;;;;4957521;28;20023;-85
2023/12/15 11:38:08;;;;;;;6.68;4.82;;;6.60;71.60;;;;;;4957558;29;20019;-81
2023/12/15 11:43:55;;;;;;;8.10;5.05;;;6.70;71.40;;;;;;4964327;23;20087;-81
2023/12/15 11:54:52;;;;;;;7.43;5.53;;;6.60;71.60;;;;;;5531794;23;20066;-80
2023/12/15 12:00:52;;;;;;;10.38;6.53;;;6.50;72.70;;;;;;4990271;23;20054;-76
2023/12/15 12:12:24;;;;;;;6.25;5.13;;;7.30;70.30;;;;;;4354802;23;19922;-78
2023/12/15 12:14:49;;;;;;;6.35;4.75;;;7.30;69.70;;;;;;4956061;29;20535;-82
2023/12/15 12:17:16;;;;;;;6.50;5.45;;;7.30;69.70;;;;;;4956385;28;20035;-81
2023/12/15 12:19:42;;;;;;;7.45;5.90;;;7.10;70.50;;;;;;4939023;29;20031;-81
2023/12/15 12:25:44;;;;;;;8.43;5.25;;;6.80;71.30;;;;;;4956837;28;20538;-81
2023/12/15 12:28:11;;;;;;;8.63;5.88;;;6.70;72.70;;;;;;4937439;29;20032;-82
2023/12/15 12:30:38;;;;;;;7.78;5.93;;;6.80;72.10;;;;;;4957180;28;20031;-84
2023/12/15 12:33:07;;;;;;;9.48;7.00;;;6.90;72.00;;;;;;4939093;29;20463;-83
2023/12/15 12:35:34;;;;;;;8.20;6.00;;;6.80;73.10;;;;;;4956443;29;20090;-81
2023/12/15 12:37:59;;;;;;;6.78;5.25;;;6.70;73.00;;;;;;4938603;29;20032;-81
2023/12/15 12:40:28;;;;;;;7.55;5.28;;;6.80;73.60;;;;;;4938375;29;20027;-81
2023/12/15 12:43:33;;;;;;;;;;;;;;;;;;;;;
2023/12/15 12:46:02;;;;;;;6.90;5.35;;;6.90;73.10;;;;;;4943808;29;20469;-81
2023/12/15 12:49:17;;;;;;;6.20;5.13;;;6.90;73.00;;;;;;4937800;29;20019;-79
2023/12/15 12:51:44;;;;;;;8.73;5.10;;;6.90;73.40;;;;;;4867623;29;20037;-77
2023/12/15 12:54:09;;;;;;;6.18;4.90;;;6.90;72.60;;;;;;4892511;29;20039;-79
2023/12/15 12:56:36;;;;;;;9.18;5.38;;;7.00;73.60;;;;;;4937924;29;20059;-79
2023/12/15 13:16:05;;;;;;;5.65;3.88;;;13.00;49.20;;;;;;4920297;29;20462;-77
2023/12/15 13:21:32;;;;;;;4.47;3.65;;;12.60;49.20;;;;;;4931852;29;20031;-79
2023/12/15 13:24:32;;;;;;;3.72;3.35;;;12.20;50.00;;;;;;4933459;29;20027;-79
2023/12/15 13:27:00;;;;;;;6.35;4.30;;;11.50;52.00;;;;;;4934444;29;20043;-79
2023/12/15 13:29:50;;;;;;;4.82;3.85;;;10.80;55.00;;;;;;4955405;29;20024;-79
2023/12/15 13:32:17;;;;;;;6.60;4.70;;;10.20;56.90;;;;;;4949876;29;20027;-78
2023/12/15 13:35:14;;;;;;;4.57;4.15;;;9.70;58.70;;;;;;4940670;29;20043;-79
2023/12/15 13:37:40;;;;;;;8.98;4.65;;;9.30;60.40;;;;;;4925840;29;20036;-78
2023/12/15 13:40:32;;;;;;;5.90;3.85;;;8.90;61.90;;;;;;4934803;29;20039;-80
2023/12/15 13:48:44;;;;;;;6.65;3.30;;;8.00;64.30;;;;;;5395988;23;19922;-76
2023/12/15 13:51:10;;;;;;;1.88;1.67;;;7.70;65.80;;;;;;4936253;29;20027;-76
2023/12/15 13:53:36;;;;;;;4.07;1.65;;;7.70;65.40;;;;;;4954894;29;20105;-75
2023/12/15 13:56:02;;;;;;;2.00;1.40;;;7.40;65.40;;;;;;4937778;29;20507;-78
2023/12/15 13:58:27;;;;;;;4.50;1.88;;;7.40;66.10;;;;;;4937905;29;20089;-78
2023/12/15 14:01:42;;;;;;;1.80;1.42;;;7.30;66.20;;;;;;4995686;23;20047;-78
2023/12/15 14:04:25;;;;;;;3.13;1.58;;;7.30;67.20;;;;;;4934992;29;20039;-77
2023/12/15 14:06:53;;;;;;;2.03;1.52;;;7.40;67.00;;;;;;4926283;29;20035;-78
2023/12/15 14:09:26;;;;;;;2.40;1.52;;;7.20;67.60;;;;;;4927098;29;20024;-79
2023/12/15 14:12:17;;;;;;;4.47;1.90;;;7.20;67.20;;;;;;4929985;23;20052;-79
2023/12/15 14:15:15;;;;;;;2.78;1.90;;;7.10;67.50;;;;;;4926268;29;20031;-79
2023/12/15 14:18:12;;;;;;;4.70;2.50;;;7.10;67.30;;;;;;4924002;29;20039;-77